createdAt,value
2023-01-20T00:01:39.683Z,5.30
2023-01-20T00:04:06.571Z,5.87
2023-01-20T00:06:33.082Z,4.37
2023-01-20T00:09:00.598Z,9.10
2023-01-20T00:11:27.959Z,6.00
2023-01-20T00:13:59.693Z,7.37
2023-01-20T00:16:27.085Z,4.37
2023-01-20T00:18:54.044Z,3.60
2023-01-20T00:21:28.849Z,3.87
2023-01-20T00:23:55.317Z,4.20
2023-01-20T00:26:24.001Z,4.60
2023-01-20T00:28:53.475Z,6.20
2023-01-20T00:31:23.914Z,5.93
2023-01-20T00:33:51.709Z,5.57
2023-01-20T00:36:19.558Z,5.87
2023-01-20T00:38:46.043Z,4.13
2023-01-20T00:41:13.144Z,3.93
2023-01-20T00:43:39.728Z,3.23
2023-01-20T00:46:07.011Z,5.93
2023-01-20T00:48:34.450Z,5.30
2023-01-20T00:51:01.454Z,7.47
2023-01-20T00:53:27.988Z,7.43
2023-01-20T00:55:54.483Z,5.73
2023-01-20T00:58:21.091Z,6.97
2023-01-20T01:00:48.852Z,5.83
2023-01-20T01:03:15.797Z,5.40
2023-01-20T01:05:42.631Z,4.17
2023-01-20T01:08:10.075Z,10.33
2023-01-20T01:10:36.513Z,7.67
2023-01-20T01:13:04.228Z,13.03
2023-01-20T01:15:30.968Z,6.53
2023-01-20T01:17:58.735Z,6.60
2023-01-20T01:20:25.590Z,7.40
2023-01-20T01:22:52.101Z,7.93
2023-01-20T01:25:19.106Z,7.60
2023-01-20T01:27:45.639Z,5.07
2023-01-20T01:30:12.856Z,10.03
2023-01-20T01:32:39.355Z,9.00
2023-01-20T01:35:06.843Z,11.57
2023-01-20T01:37:33.337Z,8.10
2023-01-20T01:39:59.796Z,9.10
2023-01-20T01:42:26.945Z,7.23
2023-01-20T01:45:12.185Z,6.77
2023-01-20T01:47:41.071Z,9.53
2023-01-20T01:50:09.819Z,8.37
2023-01-20T01:52:36.323Z,5.30
2023-01-20T01:55:03.133Z,7.70
2023-01-20T01:57:31.621Z,8.53
2023-01-20T01:59:58.086Z,5.67
2023-01-20T02:02:24.675Z,10.03
2023-01-20T02:04:51.157Z,6.83
2023-01-20T02:07:19.770Z,10.00
2023-01-20T02:09:46.624Z,8.10
2023-01-20T02:12:15.788Z,6.80
2023-01-20T02:14:47.081Z,7.97
2023-01-20T02:17:36.283Z,8.13
2023-01-20T02:20:23.945Z,12.63
2023-01-20T02:22:56.566Z,7.50
2023-01-20T02:25:43.066Z,6.13
2023-01-20T02:28:15.623Z,8.50
2023-01-20T02:31:16.719Z,8.03
2023-01-20T02:34:01.670Z,8.43
2023-01-20T02:36:43.949Z,4.93
2023-01-20T02:39:26.920Z,5.63
2023-01-20T02:42:15.988Z,8.73
2023-01-20T02:45:06.447Z,7.83
2023-01-20T02:47:52.027Z,8.67
2023-01-20T02:50:42.644Z,7.93
2023-01-20T02:53:11.225Z,7.20
2023-01-20T02:55:47.498Z,6.70
2023-01-20T02:58:24.012Z,7.37
2023-01-20T03:00:56.466Z,9.13
2023-01-20T03:03:26.682Z,11.03
2023-01-20T03:05:56.387Z,8.37
2023-01-20T03:08:24.534Z,7.50
2023-01-20T03:10:52.715Z,9.07
2023-01-20T03:13:34.544Z,10.80
2023-01-20T03:16:11.122Z,10.83
2023-01-20T03:18:38.229Z,7.60
2023-01-20T03:21:07.001Z,11.37
2023-01-20T03:23:41.023Z,8.63
2023-01-20T03:26:10.742Z,12.47
2023-01-20T03:28:37.479Z,8.90
2023-01-20T03:31:25.630Z,9.37
2023-01-20T03:33:54.117Z,13.27
2023-01-20T03:36:22.526Z,11.53
2023-01-20T03:38:49.554Z,9.70
2023-01-20T03:41:57.889Z,12.57
2023-01-20T03:44:26.940Z,10.40
2023-01-20T03:47:00.348Z,10.40
2023-01-20T03:49:36.560Z,10.70
2023-01-20T03:52:46.656Z,10.10
2023-01-20T03:55:52.374Z,12.00
2023-01-20T03:58:22.618Z,11.13
2023-01-20T04:00:50.197Z,13.17
2023-01-20T04:03:20.310Z,9.17
2023-01-20T04:05:47.274Z,11.47
2023-01-20T04:08:16.356Z,14.67
2023-01-20T04:10:45.539Z,14.60
2023-01-20T04:13:12.007Z,13.03
2023-01-20T04:15:44.521Z,13.97
2023-01-20T04:18:12.507Z,12.77
2023-01-20T04:20:39.003Z,9.07
2023-01-20T04:23:06.765Z,13.90
2023-01-20T04:25:33.520Z,15.87
2023-01-20T04:28:00.012Z,11.20
2023-01-20T04:30:26.571Z,11.83
2023-01-20T04:32:53.098Z,10.07
2023-01-20T04:35:20.028Z,11.30
2023-01-20T04:37:46.528Z,10.87
2023-01-20T04:40:13.190Z,10.27
2023-01-20T04:42:39.741Z,13.13
2023-01-20T04:45:06.573Z,13.07
2023-01-20T04:47:33.805Z,12.60
2023-01-20T04:50:00.407Z,13.63
2023-01-20T04:52:26.896Z,13.43
2023-01-20T04:54:53.390Z,14.33
2023-01-20T04:57:19.862Z,11.57
2023-01-20T04:59:46.455Z,16.20
2023-01-20T05:02:12.983Z,16.17
2023-01-20T05:04:56.869Z,14.23
2023-01-20T05:07:23.388Z,13.90
2023-01-20T05:09:49.869Z,13.30
2023-01-20T05:12:16.335Z,15.90
2023-01-20T05:14:42.805Z,14.70
2023-01-20T05:17:09.240Z,19.30
2023-01-20T05:19:35.717Z,15.90
2023-01-20T05:22:02.162Z,13.73
2023-01-20T05:24:28.663Z,14.50
2023-01-20T05:26:55.199Z,15.33
2023-01-20T05:29:21.634Z,13.77
2023-01-20T05:31:48.155Z,16.80
2023-01-20T05:34:16.449Z,13.20
2023-01-20T05:36:42.905Z,12.53
2023-01-20T05:39:09.374Z,14.17
2023-01-20T05:41:35.849Z,13.80
2023-01-20T05:44:02.351Z,14.33
2023-01-20T05:46:28.980Z,14.80
2023-01-20T05:48:55.473Z,13.67
2023-01-20T05:51:21.989Z,14.57
2023-01-20T05:53:48.437Z,16.73
2023-01-20T05:56:16.186Z,16.17
2023-01-20T05:58:43.016Z,13.03
2023-01-20T06:01:11.724Z,15.27
2023-01-20T06:03:38.651Z,14.83
2023-01-20T06:06:07.629Z,16.70
2023-01-20T06:08:34.916Z,15.83
2023-01-20T06:11:02.460Z,16.37
2023-01-20T06:13:28.913Z,20.63
2023-01-20T06:15:55.922Z,16.53
2023-01-20T06:18:23.256Z,16.77
2023-01-20T06:20:49.874Z,17.13
2023-01-20T06:23:16.537Z,21.90
2023-01-20T06:25:43.995Z,20.00
2023-01-20T06:28:10.496Z,21.00
2023-01-20T06:30:38.152Z,24.13
2023-01-20T06:33:10.466Z,21.60
2023-01-20T06:35:37.712Z,19.73
2023-01-20T06:38:04.379Z,23.17
2023-01-20T06:40:31.258Z,24.00
2023-01-20T06:42:58.459Z,26.07
2023-01-20T06:45:25.006Z,24.77
2023-01-20T06:47:51.443Z,25.30
2023-01-20T06:50:17.910Z,29.47
2023-01-20T06:52:44.394Z,27.67
2023-01-20T06:55:10.852Z,28.27
2023-01-20T06:57:37.300Z,31.40
2023-01-20T07:00:04.331Z,34.43
2023-01-20T07:02:30.868Z,33.87
2023-01-20T07:04:57.306Z,31.70
2023-01-20T07:07:23.796Z,33.93
2023-01-20T07:09:51.937Z,35.67
2023-01-20T07:12:18.405Z,33.90
2023-01-20T07:14:45.575Z,32.83
2023-01-20T07:17:13.310Z,35.70
2023-01-20T07:19:39.785Z,37.03
2023-01-20T07:22:06.236Z,37.63
2023-01-20T07:24:32.675Z,39.63
2023-01-20T07:26:59.223Z,36.53
2023-01-20T07:29:26.748Z,37.70
2023-01-20T07:31:53.315Z,39.47
2023-01-20T07:34:19.920Z,42.40
2023-01-20T07:36:46.381Z,37.57
2023-01-20T07:39:13.141Z,40.57
2023-01-20T07:41:39.687Z,38.03
2023-01-20T07:44:06.136Z,40.67
2023-01-20T07:46:32.700Z,43.13
2023-01-20T07:48:59.198Z,41.07
2023-01-20T07:51:25.656Z,40.23
2023-01-20T07:53:52.189Z,39.43
2023-01-20T07:56:21.752Z,41.83
2023-01-20T07:58:50.512Z,45.70
2023-01-20T08:01:27.510Z,45.43
2023-01-20T08:03:54.186Z,44.57
2023-01-20T08:06:23.012Z,47.53
2023-01-20T08:08:49.602Z,48.17
2023-01-20T08:11:17.280Z,50.57
2023-01-20T08:13:43.811Z,42.07
2023-01-20T08:16:25.710Z,51.03
2023-01-20T08:18:54.715Z,51.93
2023-01-20T08:21:23.864Z,49.47
2023-01-20T08:23:50.650Z,48.47
2023-01-20T08:26:17.282Z,51.93
2023-01-20T08:28:43.887Z,52.63
2023-01-20T08:31:11.393Z,53.57
2023-01-20T08:33:38.825Z,48.77
2023-01-20T08:36:10.026Z,52.37
2023-01-20T08:38:37.043Z,51.80
2023-01-20T08:41:08.543Z,49.23
2023-01-20T08:43:35.077Z,52.30
2023-01-20T08:46:03.346Z,53.20
2023-01-20T08:48:29.880Z,56.03
2023-01-20T08:50:56.625Z,54.80
2023-01-20T08:53:23.090Z,51.87
2023-01-20T08:55:59.195Z,54.47
2023-01-20T08:58:27.515Z,47.63
2023-01-20T09:00:54.617Z,53.17
2023-01-20T09:03:22.302Z,48.03
2023-01-20T09:05:49.183Z,50.97
2023-01-20T09:08:17.193Z,59.10
2023-01-20T09:10:44.462Z,50.57
2023-01-20T09:13:11.293Z,52.73
2023-01-20T09:15:37.748Z,52.83
2023-01-20T09:18:04.290Z,56.20
2023-01-20T09:20:30.736Z,51.00
2023-01-20T09:23:02.784Z,50.17
2023-01-20T09:25:29.253Z,51.63
2023-01-20T09:28:07.042Z,50.37
2023-01-20T09:30:33.487Z,49.40
2023-01-20T09:33:00.174Z,45.93
2023-01-20T09:35:26.806Z,55.23
2023-01-20T09:38:11.999Z,51.87
2023-01-20T09:41:10.758Z,53.03
2023-01-20T09:43:55.556Z,53.40
2023-01-20T09:46:33.778Z,51.73
2023-01-20T09:49:42.017Z,52.33
2023-01-20T09:52:33.229Z,46.63
2023-01-20T09:55:04.561Z,46.53
2023-01-20T09:57:34.606Z,51.53
2023-01-20T10:00:06.601Z,50.83
2023-01-20T10:02:36.187Z,49.67
2023-01-20T10:05:12.516Z,54.07
2023-01-20T10:08:17.638Z,56.10
2023-01-20T10:11:12.491Z,55.07
2023-01-20T10:13:47.379Z,45.20
2023-01-20T10:16:23.473Z,52.53
2023-01-20T10:18:56.619Z,49.43
2023-01-20T10:21:31.232Z,47.07
2023-01-20T10:24:00.958Z,44.93
2023-01-20T10:26:38.760Z,46.03
2023-01-20T10:29:07.795Z,47.63
2023-01-20T10:31:38.095Z,46.67
2023-01-20T10:34:19.035Z,48.63
2023-01-20T10:36:50.543Z,46.60
2023-01-20T10:40:08.648Z,41.17
2023-01-20T10:42:35.127Z,48.60
2023-01-20T10:45:01.689Z,41.43
2023-01-20T10:47:44.247Z,44.93
2023-01-20T10:50:19.828Z,44.67
2023-01-20T10:53:15.781Z,43.90
2023-01-20T10:56:03.385Z,43.10
2023-01-20T10:58:38.194Z,39.63
2023-01-20T11:01:09.290Z,44.83
2023-01-20T11:03:39.687Z,41.37
2023-01-20T11:06:06.580Z,46.90
2023-01-20T11:08:33.164Z,42.83
2023-01-20T11:11:01.951Z,44.87
2023-01-20T11:13:28.431Z,44.13
2023-01-20T11:15:57.614Z,43.93
2023-01-20T11:18:30.072Z,38.60
2023-01-20T11:20:56.600Z,39.27
2023-01-20T11:23:36.587Z,42.90
2023-01-20T11:26:28.402Z,38.17
2023-01-20T11:28:57.983Z,39.07
2023-01-20T11:31:43.224Z,34.90
2023-01-20T11:34:28.157Z,36.93
2023-01-20T11:37:06.947Z,43.30
2023-01-20T11:39:35.645Z,33.03
2023-01-20T11:42:15.429Z,40.87
2023-01-20T11:44:54.495Z,44.00
2023-01-20T11:47:24.916Z,37.53
2023-01-20T11:50:09.944Z,37.77
2023-01-20T11:52:47.299Z,36.80
2023-01-20T11:55:19.846Z,36.80
2023-01-20T11:57:53.790Z,34.77
2023-01-20T12:00:20.225Z,36.83
2023-01-20T12:03:09.971Z,36.07
2023-01-20T12:05:41.924Z,37.40
2023-01-20T12:08:17.463Z,37.10
2023-01-20T12:10:44.961Z,36.33
2023-01-20T12:13:24.955Z,38.10
2023-01-20T12:15:54.732Z,36.00
2023-01-20T12:18:27.315Z,37.30
2023-01-20T12:21:20.222Z,36.10
2023-01-20T12:24:02.870Z,37.40
2023-01-20T12:26:29.636Z,37.30
2023-01-20T12:29:03.352Z,35.70
2023-01-20T12:31:30.233Z,37.20
2023-01-20T12:34:04.098Z,37.73
2023-01-20T12:36:52.042Z,35.93
2023-01-20T12:39:50.699Z,36.33
2023-01-20T12:42:26.096Z,38.80
2023-01-20T12:45:20.022Z,35.10
2023-01-20T12:48:25.723Z,36.83
2023-01-20T12:51:05.753Z,35.03
2023-01-20T12:53:56.270Z,36.03
2023-01-20T12:56:41.192Z,34.50
2023-01-20T12:59:36.733Z,31.50
2023-01-20T13:02:10.403Z,35.23
2023-01-20T13:04:36.814Z,39.77
2023-01-20T13:07:15.411Z,37.13
2023-01-20T13:10:00.453Z,34.33
2023-01-20T13:12:36.536Z,34.23
2023-01-20T13:15:22.618Z,34.07
2023-01-20T13:18:08.304Z,33.10
2023-01-20T13:20:38.809Z,36.50
2023-01-20T13:23:05.624Z,34.97
2023-01-20T13:25:34.231Z,33.70
2023-01-20T13:28:00.800Z,32.93
2023-01-20T13:30:51.306Z,33.70
2023-01-20T13:33:33.693Z,31.37
2023-01-20T13:36:01.927Z,34.13
2023-01-20T13:38:35.955Z,34.77
2023-01-20T13:41:06.013Z,30.03
2023-01-20T13:43:33.492Z,33.43
2023-01-20T13:46:03.010Z,34.33
2023-01-20T13:48:30.897Z,35.17
2023-01-20T13:51:15.597Z,33.67
2023-01-20T13:53:43.112Z,34.97
2023-01-20T13:56:26.173Z,33.37
2023-01-20T13:58:53.911Z,31.03
2023-01-20T14:01:20.516Z,28.07
2023-01-20T14:04:14.254Z,29.47
2023-01-20T14:06:48.988Z,24.90
2023-01-20T14:09:24.113Z,26.37
2023-01-20T14:11:52.280Z,26.83
2023-01-20T14:14:22.663Z,27.07
2023-01-20T14:16:49.496Z,28.63
2023-01-20T14:19:24.998Z,26.77
2023-01-20T14:21:57.185Z,24.57
2023-01-20T14:24:31.010Z,28.77
2023-01-20T14:27:32.141Z,26.10
2023-01-20T14:30:22.120Z,30.97
2023-01-20T14:32:49.731Z,28.10
2023-01-20T14:35:21.115Z,29.63
2023-01-20T14:37:50.520Z,26.90
2023-01-20T14:40:33.670Z,26.03
2023-01-20T14:43:20.647Z,28.77
2023-01-20T14:45:49.271Z,28.23
2023-01-20T14:48:32.459Z,30.57
2023-01-20T14:51:02.600Z,31.07
2023-01-20T14:53:29.129Z,30.50
2023-01-20T14:56:03.407Z,32.80
2023-01-20T14:58:34.616Z,31.33
2023-01-20T15:01:03.501Z,30.07
2023-01-20T15:03:30.740Z,28.90
2023-01-20T15:05:59.304Z,31.97
2023-01-20T15:08:34.817Z,35.53
2023-01-20T15:11:17.050Z,34.67
2023-01-20T15:13:58.692Z,33.33
2023-01-20T15:16:28.233Z,31.90
2023-01-20T15:19:13.623Z,39.10
2023-01-20T15:21:41.827Z,38.97
2023-01-20T15:24:20.336Z,36.47
2023-01-20T15:26:49.078Z,36.07
2023-01-20T15:29:23.616Z,36.80
2023-01-20T15:31:51.424Z,36.57
2023-01-20T15:34:19.974Z,36.97
2023-01-20T15:36:47.623Z,37.50
2023-01-20T15:39:15.697Z,45.30
2023-01-20T15:41:42.604Z,89.57
2023-01-20T15:44:09.135Z,168.23
2023-01-20T15:46:35.890Z,167.77
2023-01-20T15:49:02.371Z,38.43
2023-01-20T15:51:28.855Z,40.73
2023-01-20T15:53:55.281Z,39.77
2023-01-20T15:56:29.469Z,38.70
2023-01-20T15:58:57.258Z,41.13
2023-01-20T16:01:25.942Z,39.77
2023-01-20T16:03:54.906Z,39.37
2023-01-20T16:06:25.341Z,42.20
2023-01-20T16:08:51.778Z,41.53
2023-01-20T16:11:19.283Z,41.27
2023-01-20T16:13:46.278Z,41.43
2023-01-20T16:16:14.769Z,36.97
2023-01-20T16:18:41.508Z,35.67
2023-01-20T16:21:10.861Z,41.23
2023-01-20T16:23:37.793Z,41.40
2023-01-20T16:26:20.413Z,41.10
2023-01-20T16:28:46.879Z,38.13
2023-01-20T16:31:13.681Z,39.50
2023-01-20T16:33:40.341Z,43.07
2023-01-20T16:36:11.056Z,35.37
2023-01-20T16:38:37.919Z,36.77
2023-01-20T16:41:07.202Z,36.30
2023-01-20T16:43:33.658Z,40.67
2023-01-20T16:46:00.228Z,45.90
2023-01-20T16:48:26.733Z,42.47
2023-01-20T16:50:53.273Z,41.33
2023-01-20T16:53:20.250Z,37.50
2023-01-20T16:55:47.783Z,41.40
2023-01-20T16:58:15.373Z,42.83
2023-01-20T17:00:42.120Z,41.57
2023-01-20T17:03:08.769Z,44.53
2023-01-20T17:05:35.599Z,42.23
2023-01-20T17:08:02.481Z,47.53
2023-01-20T17:10:32.234Z,47.23
2023-01-20T17:12:59.492Z,45.03
2023-01-20T17:15:26.513Z,47.97
2023-01-20T17:17:56.698Z,55.77
2023-01-20T17:20:23.593Z,49.97
2023-01-20T17:22:51.831Z,47.27
2023-01-20T17:25:18.391Z,47.40
2023-01-20T17:27:47.618Z,46.77
2023-01-20T17:30:15.475Z,45.40
2023-01-20T17:32:49.283Z,47.03
2023-01-20T17:35:16.971Z,45.53
2023-01-20T17:37:45.569Z,49.47
2023-01-20T17:40:18.053Z,41.90
2023-01-20T17:42:48.656Z,42.83
2023-01-20T17:45:15.448Z,42.33
2023-01-20T17:47:42.126Z,44.13
2023-01-20T17:50:09.121Z,47.77
2023-01-20T17:52:35.623Z,50.57
2023-01-20T17:55:04.229Z,47.30
2023-01-20T17:57:32.651Z,49.30
2023-01-20T17:59:59.186Z,44.03
2023-01-20T18:02:25.785Z,44.80
2023-01-20T18:04:59.579Z,49.63
2023-01-20T18:07:26.058Z,40.07
2023-01-20T18:09:52.755Z,41.40
2023-01-20T18:12:21.467Z,41.80
2023-01-20T18:14:48.509Z,39.27
2023-01-20T18:17:15.015Z,42.67
2023-01-20T18:19:42.787Z,43.87
2023-01-20T18:22:10.356Z,38.73
2023-01-20T18:24:36.903Z,51.27
2023-01-20T18:27:03.521Z,41.60
2023-01-20T18:29:30.181Z,43.97
2023-01-20T18:31:58.256Z,39.63
2023-01-20T18:34:25.152Z,45.53
2023-01-20T18:36:51.987Z,40.47
2023-01-20T18:39:21.516Z,42.30
2023-01-20T18:41:48.694Z,40.13
2023-01-20T18:44:15.635Z,40.33
2023-01-20T18:46:42.691Z,41.30
2023-01-20T18:49:13.209Z,45.67
2023-01-20T18:51:40.168Z,45.33
2023-01-20T18:54:10.705Z,42.70
2023-01-20T18:56:37.336Z,44.23
2023-01-20T18:59:07.478Z,40.70
2023-01-20T19:01:36.876Z,41.83
2023-01-20T19:04:04.438Z,40.07
2023-01-20T19:06:34.394Z,43.70
2023-01-20T19:09:01.497Z,37.33
2023-01-20T19:11:31.660Z,45.83
2023-01-20T19:13:58.966Z,48.20
2023-01-20T19:16:36.064Z,46.37
2023-01-20T19:19:04.734Z,49.43
2023-01-20T19:21:33.226Z,44.93
2023-01-20T19:24:02.978Z,38.93
2023-01-20T19:26:29.468Z,38.30
2023-01-20T19:29:00.634Z,40.50
2023-01-20T19:31:31.040Z,36.10
2023-01-20T19:33:57.982Z,38.70
2023-01-20T19:36:24.694Z,40.27
2023-01-20T19:38:54.120Z,40.57
2023-01-20T19:41:23.065Z,39.83
2023-01-20T19:43:57.393Z,40.77
2023-01-20T19:46:26.729Z,38.47
2023-01-20T19:48:54.095Z,43.57
2023-01-20T19:51:20.775Z,39.63
2023-01-20T19:53:50.238Z,38.37
2023-01-20T19:56:18.379Z,40.57
2023-01-20T19:58:46.023Z,45.57
2023-01-20T20:01:17.830Z,43.47
2023-01-20T20:03:44.529Z,37.50
2023-01-20T20:06:32.133Z,38.23
2023-01-20T20:09:01.269Z,43.93
2023-01-20T20:11:28.912Z,39.47
2023-01-20T20:13:57.405Z,39.23
2023-01-20T20:16:25.547Z,37.70
2023-01-20T20:18:52.780Z,43.63
2023-01-20T20:21:19.746Z,47.47
2023-01-20T20:23:50.662Z,42.83
2023-01-20T20:26:17.917Z,52.83
2023-01-20T20:28:45.118Z,44.20
2023-01-20T20:31:12.013Z,44.90
2023-01-20T20:33:38.702Z,45.47
2023-01-20T20:36:07.465Z,44.83
2023-01-20T20:38:36.686Z,39.00
2023-01-20T20:41:04.741Z,43.43
2023-01-20T20:43:31.248Z,46.33
2023-01-20T20:46:01.828Z,43.10
2023-01-20T20:48:28.847Z,44.17
2023-01-20T20:50:55.487Z,44.83
2023-01-20T20:53:22.675Z,47.50
2023-01-20T20:55:53.995Z,45.40
2023-01-20T20:58:22.434Z,49.03
2023-01-20T21:00:50.988Z,44.13
2023-01-20T21:03:17.529Z,46.60
2023-01-20T21:05:49.454Z,48.40
2023-01-20T21:08:17.675Z,42.13
2023-01-20T21:10:44.381Z,45.33
2023-01-20T21:13:11.247Z,49.40
2023-01-20T21:15:38.449Z,43.83
2023-01-20T21:18:05.909Z,52.50
2023-01-20T21:20:33.609Z,49.83
2023-01-20T21:23:00.827Z,45.73
2023-01-20T21:25:27.895Z,48.30
2023-01-20T21:27:54.550Z,48.37
2023-01-20T21:30:21.248Z,43.90
2023-01-20T21:32:47.752Z,44.10
2023-01-20T21:35:14.255Z,56.37
2023-01-20T21:37:40.778Z,52.00
2023-01-20T21:40:07.661Z,53.87
2023-01-20T21:42:34.124Z,48.20
2023-01-20T21:45:00.591Z,48.47
2023-01-20T21:47:27.084Z,53.83
2023-01-20T21:50:12.216Z,56.93
2023-01-20T21:52:41.496Z,52.63
2023-01-20T21:55:16.685Z,52.23
2023-01-20T21:57:43.274Z,63.47
2023-01-20T22:00:10.692Z,67.47
2023-01-20T22:02:37.436Z,55.10
2023-01-20T22:05:04.176Z,56.93
2023-01-20T22:07:30.695Z,56.10
2023-01-20T22:09:58.314Z,47.60
2023-01-20T22:12:25.037Z,46.93
2023-01-20T22:14:53.141Z,54.87
2023-01-20T22:17:19.653Z,55.20
2023-01-20T22:19:46.241Z,58.20
2023-01-20T22:22:15.335Z,55.17
2023-01-20T22:24:42.780Z,57.03
2023-01-20T22:27:10.207Z,56.57
2023-01-20T22:29:36.705Z,46.50
2023-01-20T22:32:04.207Z,48.53
2023-01-20T22:34:31.455Z,47.27
2023-01-20T22:37:00.409Z,42.27
2023-01-20T22:39:27.797Z,42.13
2023-01-20T22:41:54.235Z,46.90
2023-01-20T22:44:20.683Z,44.20
2023-01-20T22:46:47.202Z,42.40
2023-01-20T22:49:14.106Z,42.67
2023-01-20T22:51:40.787Z,41.50
2023-01-20T22:54:10.585Z,43.47
2023-01-20T22:56:38.131Z,42.83
2023-01-20T22:59:04.610Z,47.10
2023-01-20T23:01:33.588Z,49.07
2023-01-20T23:04:02.337Z,46.30
2023-01-20T23:06:33.085Z,52.17
2023-01-20T23:09:06.357Z,46.70
2023-01-20T23:11:34.014Z,52.70
2023-01-20T23:14:00.977Z,52.40
2023-01-20T23:16:27.818Z,50.20
2023-01-20T23:18:54.438Z,54.10
2023-01-20T23:21:21.798Z,51.17
2023-01-20T23:23:54.303Z,52.00
2023-01-20T23:26:26.434Z,45.80
2023-01-20T23:28:53.896Z,52.73
2023-01-20T23:31:20.743Z,57.03
2023-01-20T23:33:47.276Z,54.03
2023-01-20T23:36:19.339Z,55.23
2023-01-20T23:38:45.851Z,51.13
2023-01-20T23:41:13.319Z,53.50
2023-01-20T23:43:40.987Z,60.03
2023-01-20T23:46:08.290Z,60.70
2023-01-20T23:48:35.424Z,56.40
2023-01-20T23:51:02.700Z,62.20
2023-01-20T23:53:30.845Z,52.20
2023-01-20T23:56:04.102Z,54.97
2023-01-20T23:58:30.699Z,54.60
